Time;durP1;ratioP1;P1;durP2;ratioP2;P2;SDS_P1;SDS_P2;PMS_P1;PMS_P2;Temp;Humidity;BMP_temperature;BMP_pressure;BME280_temperature;BME280_humidity;BME280_pressure;Samples;Min_cycle;Max_cycle;Signal;HPM_P1;HPM_P2
2021/04/05 00:00:42;;;;;;;1999.90;999.90;;;4.40;99.90;;;;;;4824577;29;20550;-76
2021/04/05 00:03:08;;;;;;;1999.90;999.90;;;4.50;99.90;;;;;;4807998;29;20170;-76
2021/04/05 00:05:38;;;;;;;1999.90;999.90;;;4.60;99.90;;;;;;4807641;29;20173;-77
2021/04/05 00:08:05;;;;;;;1999.90;999.90;;;4.60;99.90;;;;;;4824042;29;20981;-76
2021/04/05 00:10:37;;;;;;;1999.90;999.90;;;4.70;99.90;;;;;;4824036;29;20592;-76
2021/04/05 00:13:08;;;;;;;1999.90;999.90;;;4.70;99.90;;;;;;4824021;29;20665;-76
2021/04/05 00:15:34;;;;;;;1999.90;999.90;;;4.80;99.90;;;;;;4823919;29;20231;-77
2021/04/05 00:18:00;;;;;;;1999.90;999.90;;;4.80;99.90;;;;;;4824380;29;20176;-77
2021/04/05 00:20:29;;;;;;;1999.90;999.90;;;4.80;99.90;;;;;;4823767;29;20247;-79
2021/04/05 00:22:55;;;;;;;1999.90;999.90;;;4.80;99.90;;;;;;4823896;29;20827;-77
2021/04/05 00:25:21;;;;;;;1999.90;999.90;;;4.90;99.90;;;;;;4807447;29;20169;-77
2021/04/05 00:27:47;;;;;;;1999.90;999.90;;;5.00;99.90;;;;;;4823892;29;20217;-78
2021/04/05 00:30:24;;;;;;;1999.90;999.90;;;4.90;99.90;;;;;;4826577;29;20518;-78
2021/04/05 00:32:50;;;;;;;1999.90;999.90;;;4.90;99.90;;;;;;4831512;29;20183;-78
2021/04/05 00:35:18;;;;;;;1999.90;999.90;;;4.80;99.90;;;;;;4831216;29;20244;-78
2021/04/05 00:37:45;;;;;;;1999.90;999.90;;;4.70;99.90;;;;;;4830985;29;20665;-78
2021/04/05 00:40:14;;;;;;;1999.90;999.90;;;4.70;99.90;;;;;;4830872;29;20226;-78
2021/04/05 00:42:42;;;;;;;1999.90;999.90;;;4.80;99.90;;;;;;4814396;29;20649;-78
2021/04/05 00:45:09;;;;;;;1999.90;999.90;;;4.80;99.90;;;;;;4831400;29;20168;-78
2021/04/05 00:47:50;;;;;;;1999.90;999.90;;;4.80;99.90;;;;;;4814027;29;20624;-78
2021/04/05 00:50:46;;;;;;;1999.90;999.90;;;4.70;99.90;;;;;;4831469;29;20161;-78
2021/04/05 00:53:15;;;;;;;1999.90;999.90;;;4.70;99.90;;;;;;4831523;29;20180;-78
2021/04/05 00:55:44;;;;;;;1999.90;999.90;;;4.60;99.90;;;;;;4830220;29;20237;-78
2021/04/05 00:58:10;;;;;;;1999.90;999.90;;;4.60;99.90;;;;;;4814210;29;20653;-78
2021/04/05 01:00:50;;;;;;;1999.90;999.90;;;4.60;99.90;;;;;;4830490;29;20227;-78
2021/04/05 01:03:19;;;;;;;1999.90;999.90;;;4.50;99.90;;;;;;4830817;29;20152;-78
2021/04/05 01:05:47;;;;;;;1999.90;999.90;;;4.50;99.90;;;;;;4813805;29;20321;-78
2021/04/05 01:08:18;;;;;;;1999.90;999.90;;;4.50;99.90;;;;;;4830498;29;20523;-78
2021/04/05 01:10:45;;;;;;;1999.90;999.90;;;4.50;99.90;;;;;;4830208;29;20557;-78
2021/04/05 01:13:11;;;;;;;1999.90;999.90;;;4.50;99.90;;;;;;4830017;29;20184;-78
2021/04/05 01:15:37;;;;;;;1999.90;999.90;;;4.50;99.90;;;;;;4830580;29;20169;-78
2021/04/05 01:18:05;;;;;;;1999.90;999.90;;;4.60;99.90;;;;;;4814334;29;20179;-78
2021/04/05 01:20:31;;;;;;;1999.90;999.90;;;4.60;99.90;;;;;;4829581;29;20191;-78
2021/04/05 01:22:57;;;;;;;1999.90;999.90;;;4.60;99.90;;;;;;4813198;29;20172;-78
2021/04/05 01:25:23;;;;;;;1999.90;999.90;;;4.60;99.90;;;;;;4829485;29;20413;-78
2021/04/05 01:27:51;;;;;;;1999.90;999.90;;;4.60;99.90;;;;;;4829614;29;20217;-78
2021/04/05 01:30:33;;;;;;;1999.90;999.90;;;4.60;99.90;;;;;;4812870;29;20912;-78
2021/04/05 01:33:06;;;;;;;1999.90;999.90;;;4.70;99.90;;;;;;4829544;29;20567;-78
2021/04/05 01:35:53;;;;;;;1999.90;999.90;;;4.60;99.90;;;;;;4813116;29;20172;-78
2021/04/05 01:38:22;;;;;;;1999.90;999.90;;;4.70;99.90;;;;;;4829533;29;20633;-78
2021/04/05 01:41:07;;;;;;;1999.90;999.90;;;4.70;99.90;;;;;;4813344;29;20181;-78
2021/04/05 01:43:33;;;;;;;1999.90;999.90;;;4.70;99.90;;;;;;4828588;29;20563;-78
2021/04/05 01:46:00;;;;;;;1999.90;999.90;;;4.70;99.90;;;;;;4829400;29;20249;-78
2021/04/05 01:48:30;;;;;;;1999.90;999.90;;;4.70;99.90;;;;;;4812902;29;20177;-78
2021/04/05 01:51:07;;;;;;;1999.90;999.90;;;4.70;99.90;;;;;;4829291;29;20207;-78
2021/04/05 01:53:33;;;;;;;1999.90;999.90;;;4.70;99.90;;;;;;4813158;29;20188;-78
2021/04/05 01:56:04;;;;;;;1999.90;999.90;;;4.60;99.90;;;;;;4812738;29;20230;-78
2021/04/05 01:58:31;;;;;;;1999.90;999.90;;;4.60;99.90;;;;;;4830016;29;20168;-78
2021/04/05 02:00:58;;;;;;;1999.90;999.90;;;4.60;99.90;;;;;;4830350;29;20200;-78
2021/04/05 02:03:27;;;;;;;1999.90;999.90;;;4.60;99.90;;;;;;4830061;29;20545;-78
2021/04/05 02:05:58;;;;;;;1999.90;999.90;;;4.50;99.90;;;;;;4829023;29;20275;-78
2021/04/05 02:08:26;;;;;;;1999.90;999.90;;;4.50;99.90;;;;;;4829393;29;20200;-78
2021/04/05 02:10:53;;;;;;;1999.90;999.90;;;4.60;99.90;;;;;;4812197;29;20200;-78
2021/04/05 02:13:21;;;;;;;1999.90;999.90;;;4.60;99.90;;;;;;4828748;29;20169;-79
2021/04/05 02:15:48;;;;;;;1999.90;999.90;;;4.70;99.90;;;;;;4829792;29;20173;-78
2021/04/05 02:18:14;;;;;;;1999.90;999.90;;;4.70;99.90;;;;;;4812160;29;20585;-78
2021/04/05 02:20:41;;;;;;;1999.90;999.90;;;4.60;99.90;;;;;;4829707;29;20221;-78
2021/04/05 02:23:07;;;;;;;1999.90;999.90;;;4.70;99.90;;;;;;4829885;29;20180;-78
2021/04/05 02:25:34;;;;;;;1999.90;999.90;;;4.70;99.90;;;;;;4829365;29;20173;-78
2021/04/05 02:28:04;;;;;;;1999.90;999.90;;;4.70;99.90;;;;;;4829721;29;20173;-78
2021/04/05 02:30:31;;;;;;;1999.90;999.90;;;4.60;99.90;;;;;;4829810;29;20697;-78
2021/04/05 02:33:02;;;;;;;1999.90;999.90;;;4.60;99.90;;;;;;4829328;29;20648;-78
2021/04/05 02:35:30;;;;;;;1999.90;999.90;;;4.60;99.90;;;;;;4831306;29;20217;-78
2021/04/05 02:37:57;;;;;;;1999.90;999.90;;;4.60;99.90;;;;;;4813026;29;20209;-78
2021/04/05 02:40:23;;;;;;;1999.90;999.90;;;4.60;99.90;;;;;;4814057;29;20172;-78
2021/04/05 02:42:51;;;;;;;1999.90;999.90;;;4.70;99.90;;;;;;4831849;29;20172;-78
2021/04/05 02:45:19;;;;;;;1999.90;999.90;;;4.70;99.90;;;;;;4831572;29;20179;-78
2021/04/05 02:47:47;;;;;;;1999.90;999.90;;;4.70;99.90;;;;;;4829964;29;20192;-78
2021/04/05 02:50:14;;;;;;;1999.90;999.90;;;4.60;99.90;;;;;;4829257;29;20164;-78
2021/04/05 02:52:40;;;;;;;1999.90;999.90;;;4.60;99.90;;;;;;4815049;29;20172;-78
2021/04/05 02:55:10;;;;;;;1999.90;999.90;;;4.60;99.90;;;;;;4830022;29;20669;-78
2021/04/05 02:57:37;;;;;;;1999.90;999.90;;;4.60;99.90;;;;;;4831197;29;20197;-78
2021/04/05 03:00:17;;;;;;;1999.90;999.90;;;4.60;99.90;;;;;;4829770;29;20260;-78
2021/04/05 03:02:45;;;;;;;1999.90;999.90;;;4.70;99.90;;;;;;4831654;29;20210;-78
2021/04/05 03:05:13;;;;;;;1999.90;999.90;;;4.60;99.90;;;;;;4829781;29;20550;-78
2021/04/05 03:07:39;;;;;;;1999.90;999.90;;;4.60;99.90;;;;;;4829299;29;20196;-78
2021/04/05 03:10:09;;;;;;;1999.90;999.90;;;4.60;99.90;;;;;;4831008;29;20168;-78
2021/04/05 03:12:36;;;;;;;1999.90;999.90;;;4.60;99.90;;;;;;4812670;29;20394;-78
2021/04/05 03:15:08;;;;;;;1999.90;999.90;;;4.70;99.90;;;;;;4830468;29;20732;-78
2021/04/05 03:17:35;;;;;;;1999.90;999.90;;;4.70;99.90;;;;;;4829789;29;20229;-78
2021/04/05 03:20:13;;;;;;;1999.90;999.90;;;4.70;99.90;;;;;;4829635;29;20661;-78
2021/04/05 03:22:40;;;;;;;1999.90;999.90;;;4.70;99.90;;;;;;4812793;29;20197;-78
2021/04/05 03:25:20;;;;;;;1999.90;999.90;;;4.70;99.90;;;;;;4829030;29;20637;-78
2021/04/05 03:27:49;;;;;;;1999.90;999.90;;;4.70;99.90;;;;;;4829130;29;20337;-78
2021/04/05 03:30:20;;;;;;;1999.90;999.90;;;4.70;99.90;;;;;;4828802;29;20173;-78
2021/04/05 03:32:48;;;;;;;1999.90;999.90;;;4.80;99.90;;;;;;4828557;29;20246;-78
2021/04/05 03:35:19;;;;;;;1999.90;999.90;;;4.80;99.90;;;;;;4829729;29;20184;-78
2021/04/05 03:37:47;;;;;;;1999.90;999.90;;;4.80;99.90;;;;;;4828789;29;20668;-78
2021/04/05 03:40:14;;;;;;;1999.90;999.90;;;4.80;99.90;;;;;;4796866;29;20205;-78
2021/04/05 03:42:47;;;;;;;1999.90;999.90;;;4.80;99.90;;;;;;4829111;29;20168;-78
2021/04/05 03:45:35;;;;;;;1999.90;999.90;;;4.80;99.90;;;;;;4829792;29;20153;-78
2021/04/05 03:48:09;;;;;;;1999.90;999.90;;;4.80;99.90;;;;;;4828431;29;20149;-78
2021/04/05 03:50:57;;;;;;;1999.90;999.90;;;4.70;99.90;;;;;;4828631;29;20253;-78
2021/04/05 03:53:52;;;;;;;1999.90;999.90;;;4.80;99.90;;;;;;4828256;29;20164;-78
2021/04/05 03:56:21;;;;;;;1999.90;999.90;;;4.80;99.90;;;;;;4827790;29;20189;-78
2021/04/05 03:58:50;;;;;;;1999.90;999.90;;;4.90;99.90;;;;;;4828434;29;20173;-78
2021/04/05 04:01:23;;;;;;;1999.90;999.90;;;5.00;99.90;;;;;;4811734;29;20184;-78
2021/04/05 04:04:02;;;;;;;1999.90;999.90;;;5.00;99.90;;;;;;4828310;29;20176;-78
2021/04/05 04:06:37;;;;;;;1999.90;999.90;;;5.10;99.90;;;;;;4829441;29;20219;-78
2021/04/05 04:09:04;;;;;;;1999.90;999.90;;;5.20;99.90;;;;;;4816848;29;20289;-78
2021/04/05 04:11:32;;;;;;;1999.90;999.90;;;5.50;99.90;;;;;;4831749;29;20781;-78
2021/04/05 04:14:02;;;;;;;1999.90;999.90;;;5.60;99.90;;;;;;4833324;29;20701;-78
2021/04/05 04:16:30;;;;;;;1999.90;999.90;;;5.70;99.90;;;;;;4817246;29;20192;-78
2021/04/05 04:18:58;;;;;;;1999.90;999.90;;;5.90;99.90;;;;;;4833609;29;20704;-78
2021/04/05 04:21:24;;;;;;;1999.90;999.90;;;6.00;99.90;;;;;;4833609;29;20231;-78
2021/04/05 04:23:50;;;;;;;1999.90;999.90;;;6.10;99.90;;;;;;4817464;29;20217;-78
2021/04/05 04:26:16;;;;;;;1999.90;999.90;;;6.20;99.90;;;;;;4832478;29;20200;-78
2021/04/05 04:28:45;;;;;;;1999.90;999.90;;;6.30;99.90;;;;;;4815830;29;20504;-78
2021/04/05 04:31:12;;;;;;;1999.90;999.90;;;6.30;99.90;;;;;;4832024;29;20499;-78
2021/04/05 04:33:38;;;;;;;1999.90;999.90;;;6.40;99.90;;;;;;4831737;29;20169;-78
2021/04/05 04:36:07;;;;;;;1999.90;999.90;;;6.40;99.90;;;;;;4834011;29;20201;-79
2021/04/05 04:38:34;;;;;;;1999.90;999.90;;;6.50;99.90;;;;;;4831748;29;20533;-78
2021/04/05 04:41:00;;;;;;;1999.90;999.90;;;6.50;99.90;;;;;;4832679;29;20603;-78
2021/04/05 04:43:25;;;;;;;1999.90;999.90;;;6.50;99.90;;;;;;4829331;29;20261;-77
2021/04/05 04:45:51;;;;;;;1999.90;999.90;;;6.60;99.90;;;;;;4826853;29;20200;-77
2021/04/05 04:48:16;;;;;;;1999.90;999.90;;;6.60;99.90;;;;;;4826910;29;20208;-77
2021/04/05 04:50:42;;;;;;;1999.90;999.90;;;6.60;99.90;;;;;;4826834;29;20264;-77
2021/04/05 04:53:08;;;;;;;1999.90;999.90;;;6.70;99.90;;;;;;4826877;29;20161;-77
2021/04/05 04:55:35;;;;;;;1999.90;999.90;;;6.70;99.90;;;;;;4827223;29;20252;-77
2021/04/05 04:58:03;;;;;;;1999.90;999.90;;;6.70;99.90;;;;;;4810753;29;20180;-78
2021/04/05 05:00:31;;;;;;;1999.90;999.90;;;6.70;99.90;;;;;;4826765;29;20177;-78
2021/04/05 05:02:57;;;;;;;1999.90;999.90;;;6.70;99.90;;;;;;4826545;29;20172;-77
2021/04/05 05:05:27;;;;;;;1999.90;999.90;;;6.70;99.90;;;;;;4826814;29;20188;-77
2021/04/05 05:07:54;;;;;;;1999.90;999.90;;;6.70;99.90;;;;;;4826548;29;20279;-77
2021/04/05 05:10:21;;;;;;;1999.90;999.90;;;6.70;99.90;;;;;;4826470;29;20185;-77
2021/04/05 05:12:46;;;;;;;1999.90;999.90;;;6.70;99.90;;;;;;4827014;29;20173;-77
2021/04/05 05:15:14;;;;;;;1999.90;999.90;;;6.70;99.90;;;;;;4826932;29;20579;-77
2021/04/05 05:17:48;;;;;;;1999.90;999.90;;;6.70;99.90;;;;;;4826390;29;20241;-77
2021/04/05 05:20:15;;;;;;;1999.90;999.90;;;6.80;99.90;;;;;;4879813;24;20581;-91
2021/04/05 05:22:47;;;;;;;1999.90;999.90;;;6.80;99.90;;;;;;4808550;29;20169;-91
2021/04/05 05:25:19;;;;;;;1999.90;999.90;;;6.80;99.90;;;;;;4808715;29;20530;-91
2021/04/05 05:28:00;;;;;;;1999.90;999.90;;;6.80;99.90;;;;;;4792143;29;20670;-91
2021/04/05 05:30:29;;;;;;;1999.90;999.90;;;6.80;99.90;;;;;;4791869;29;20201;-91
2021/04/05 05:32:58;;;;;;;1999.90;999.90;;;6.80;99.90;;;;;;4808256;29;20173;-91
2021/04/05 05:35:24;;;;;;;1999.90;999.90;;;6.80;99.90;;;;;;4808619;29;20638;-90
2021/04/05 05:37:50;;;;;;;1999.90;999.90;;;6.80;99.90;;;;;;4808896;29;20547;-91
2021/04/05 05:40:23;;;;;;;1999.90;999.90;;;6.80;99.90;;;;;;4791993;29;20181;-90
2021/04/05 05:43:28;;;;;;;1999.90;999.90;;;6.80;99.90;;;;;;4792190;29;20169;-90
2021/04/05 05:46:08;;;;;;;1999.90;999.90;;;6.80;99.90;;;;;;4808337;29;20245;-90
2021/04/05 05:49:07;;;;;;;1999.90;999.90;;;6.80;99.90;;;;;;4808383;29;20157;-90
2021/04/05 05:51:56;;;;;;;1999.90;999.90;;;6.90;99.90;;;;;;4792899;29;20201;-90
2021/04/05 05:55:04;;;;;;;1999.90;999.90;;;6.90;99.90;;;;;;4808299;29;20526;-91
2021/04/05 05:57:58;;;;;;;1999.90;999.90;;;6.90;99.90;;;;;;4808314;29;20594;-90
2021/04/05 06:00:33;;;;;;;1999.90;999.90;;;6.90;99.90;;;;;;4783288;29;20193;-91
2021/04/05 06:03:34;;;;;;;1999.90;999.90;;;6.90;99.90;;;;;;4809809;29;20163;-91
2021/04/05 06:06:35;;;;;;;1999.90;999.90;;;6.90;99.90;;;;;;4792006;29;20196;-91
2021/04/05 06:09:32;;;;;;;1999.90;999.90;;;6.90;99.90;;;;;;4800951;29;20561;-91
2021/04/05 06:12:21;;;;;;;1999.90;999.90;;;6.90;99.90;;;;;;4791423;29;20212;-90
2021/04/05 06:15:13;;;;;;;1999.90;999.90;;;6.90;99.90;;;;;;4791800;29;20170;-91
2021/04/05 06:18:02;;;;;;;1999.90;999.90;;;6.90;99.90;;;;;;4806165;29;20197;-90
2021/04/05 06:20:50;;;;;;;1999.90;999.90;;;6.90;99.90;;;;;;4807702;29;20279;-91
2021/04/05 06:23:40;;;;;;;1999.90;999.90;;;6.90;99.90;;;;;;4781865;29;20642;-90
2021/04/05 06:26:30;;;;;;;1999.90;999.90;;;6.90;99.90;;;;;;4807556;29;20189;-90
2021/04/05 06:29:28;;;;;;;1999.90;999.90;;;6.90;99.90;;;;;;4807461;29;20161;-91
2021/04/05 06:32:09;;;;;;;1999.90;999.90;;;6.90;99.90;;;;;;4807583;29;20229;-91
2021/04/05 06:34:52;;;;;;;1999.90;999.90;;;6.90;99.90;;;;;;4807457;29;20187;-91
2021/04/05 06:37:32;;;;;;;1999.90;999.90;;;7.00;99.90;;;;;;4807275;29;20193;-90
2021/04/05 06:40:29;;;;;;;1999.90;999.90;;;7.00;99.90;;;;;;4791294;29;20626;-91
2021/04/05 06:43:16;;;;;;;1999.90;999.90;;;6.90;99.90;;;;;;4791597;29;20192;-90
2021/04/05 06:45:52;;;;;;;1999.90;999.90;;;6.90;99.90;;;;;;4790806;29;20169;-90
2021/04/05 06:48:36;;;;;;;1999.90;999.90;;;6.90;99.90;;;;;;4791553;29;20233;-91
2021/04/05 06:51:21;;;;;;;1999.90;999.90;;;6.90;99.90;;;;;;4807275;29;20221;-91
2021/04/05 06:54:25;;;;;;;1999.90;999.90;;;6.80;99.90;;;;;;4790977;29;20177;-91
2021/04/05 06:57:10;;;;;;;1999.90;999.90;;;6.80;99.90;;;;;;4789456;29;20211;-91
2021/04/05 06:59:59;;;;;;;1999.90;999.90;;;6.70;99.90;;;;;;4807654;29;20154;-91
2021/04/05 07:02:52;;;;;;;1999.90;999.90;;;6.70;99.90;;;;;;4807408;29;20169;-92
2021/04/05 07:11:05;;;;;;;1999.90;999.90;;;6.60;99.90;;;;;;4896239;23;20231;-91
2021/04/05 07:13:52;;;;;;;1999.90;999.90;;;6.50;99.90;;;;;;4824929;29;20187;-92
2021/04/05 07:20:35;;;;;;;1999.90;999.90;;;6.50;99.90;;;;;;4768699;30;20178;-93
2021/04/05 07:23:19;;;;;;;1999.90;999.90;;;6.50;99.90;;;;;;4768748;30;20182;-91
2021/04/05 07:26:03;;;;;;;1999.90;999.90;;;6.50;99.90;;;;;;4808627;29;20215;-91
2021/04/05 07:28:54;;;;;;;1999.90;999.90;;;6.50;99.90;;;;;;4808197;29;20195;-92
2021/04/05 07:31:52;;;;;;;1999.90;999.90;;;6.50;99.90;;;;;;4825293;29;20221;-92
2021/04/05 07:35:00;;;;;;;1999.90;999.90;;;6.50;99.90;;;;;;4808741;29;20168;-92
2021/04/05 07:38:13;;;;;;;1999.90;999.90;;;6.50;99.90;;;;;;4838938;23;20220;-91
2021/04/05 07:44:01;;;;;;;1999.90;999.90;;;6.50;99.90;;;;;;4804023;29;20610;-92
2021/04/05 07:46:37;;;;;;;1999.90;999.90;;;6.50;99.90;;;;;;4824688;29;20252;-91
2021/04/05 07:49:21;;;;;;;1999.90;999.90;;;6.60;99.90;;;;;;4808686;29;20244;-91
2021/04/05 07:51:56;;;;;;;1999.90;999.90;;;6.60;99.90;;;;;;4824508;29;20215;-92
2021/04/05 07:54:40;;;;;;;1999.90;999.90;;;6.60;99.90;;;;;;4808587;29;20164;-91
2021/04/05 07:57:28;;;;;;;1999.90;999.90;;;6.70;99.90;;;;;;4807786;29;20201;-91
2021/04/05 08:00:09;;;;;;;1999.90;999.90;;;6.70;99.90;;;;;;4808425;29;20168;-92
2021/04/05 08:03:05;;;;;;;1999.90;999.90;;;6.70;99.90;;;;;;4808717;29;20161;-91
2021/04/05 08:05:50;;;;;;;1999.90;999.90;;;6.80;99.90;;;;;;4808790;29;20181;-92
2021/04/05 08:08:18;;;;;;;1999.90;999.90;;;6.90;99.90;;;;;;4824499;29;20676;-92
2021/04/05 08:11:27;;;;;;;1999.90;999.90;;;6.90;99.90;;;;;;4807747;29;20236;-92
2021/04/05 08:14:22;;;;;;;1999.90;999.90;;;6.90;99.90;;;;;;4824131;29;20154;-92
2021/04/05 08:17:25;;;;;;;1999.90;999.90;;;7.00;99.90;;;;;;4808034;29;20211;-92
2021/04/05 08:20:18;;;;;;;1999.90;999.90;;;7.00;99.90;;;;;;4824987;29;20169;-92
2021/04/05 08:22:54;;;;;;;1999.90;999.90;;;7.10;99.90;;;;;;4808559;29;20180;-92
2021/04/05 08:25:31;;;;;;;1999.90;999.90;;;7.10;99.90;;;;;;4808379;29;20192;-92
2021/04/05 08:28:17;;;;;;;1999.90;999.90;;;7.20;99.90;;;;;;4808537;29;20341;-92
2021/04/05 08:30:59;;;;;;;1999.90;999.90;;;7.30;99.90;;;;;;4807878;29;20193;-92
2021/04/05 08:33:33;;;;;;;1999.90;999.90;;;7.40;99.90;;;;;;4810654;29;20161;-91
2021/04/05 08:36:33;;;;;;;1999.90;999.90;;;7.40;99.90;;;;;;4808381;29;20231;-92
2021/04/05 08:39:15;;;;;;;1999.90;999.90;;;7.40;99.90;;;;;;4795703;29;20208;-92
2021/04/05 08:41:48;;;;;;;1999.90;999.90;;;7.50;99.90;;;;;;4807182;29;20545;-89
2021/04/05 08:44:26;;;;;;;1999.90;999.90;;;7.50;99.90;;;;;;4824448;29;20176;-87
2021/04/05 08:47:01;;;;;;;1999.90;999.90;;;7.20;99.90;;;;;;4810796;29;20204;-87
2021/04/05 08:49:32;;;;;;;1999.90;999.90;;;6.70;99.90;;;;;;4824383;29;20157;-87
2021/04/05 08:52:05;;;;;;;1999.90;999.90;;;6.40;99.90;;;;;;4809174;29;20196;-87
2021/04/05 08:54:59;;;;;;;1999.90;999.90;;;6.20;99.90;;;;;;4810375;29;20615;-87
2021/04/05 08:57:30;;;;;;;1999.90;999.90;;;6.10;99.90;;;;;;4814461;29;20196;-85
2021/04/05 09:00:19;;;;;;;1999.90;999.90;;;6.00;99.90;;;;;;4835283;29;20240;-85
2021/04/05 09:02:57;;;;;;;1999.90;999.90;;;6.00;99.90;;;;;;4817637;29;20184;-85
2021/04/05 09:05:24;;;;;;;1999.90;999.90;;;5.90;99.90;;;;;;4833679;29;20179;-85
2021/04/05 09:08:01;;;;;;;1999.90;999.90;;;5.80;99.90;;;;;;4834178;29;20188;-85
2021/04/05 09:10:47;;;;;;;1999.90;999.90;;;5.80;99.90;;;;;;4834441;29;20171;-85
2021/04/05 09:13:22;;;;;;;1999.90;999.90;;;5.90;99.90;;;;;;4818675;29;20186;-85
2021/04/05 09:16:12;;;;;;;1999.90;999.90;;;5.90;99.90;;;;;;4818160;29;20516;-85
2021/04/05 09:19:12;;;;;;;1999.90;999.90;;;5.90;99.90;;;;;;4833048;29;20161;-85
2021/04/05 09:21:45;;;;;;;1999.90;999.90;;;5.90;99.90;;;;;;4812454;29;20248;-86
2021/04/05 09:24:39;;;;;;;1999.90;999.90;;;5.90;99.90;;;;;;4811104;29;20164;-87
2021/04/05 09:27:22;;;;;;;1999.90;999.90;;;5.90;99.90;;;;;;4830869;29;20197;-86
2021/04/05 09:30:06;;;;;;;1999.90;999.90;;;5.80;99.90;;;;;;4816420;29;20317;-85
2021/04/05 09:33:06;;;;;;;1999.90;999.90;;;5.70;99.90;;;;;;4832958;29;20188;-85
2021/04/05 09:36:00;;;;;;;1999.90;999.90;;;5.70;99.90;;;;;;4812184;29;20164;-86
2021/04/05 09:39:07;;;;;;;1999.90;999.90;;;5.80;99.90;;;;;;4832797;29;20275;-85
2021/04/05 09:42:03;;;;;;;1999.90;999.90;;;5.80;99.90;;;;;;4829608;29;20200;-86
2021/04/05 09:44:44;;;;;;;1999.90;999.90;;;6.00;99.90;;;;;;4830213;29;20164;-86
2021/04/05 09:47:30;;;;;;;1999.90;999.90;;;6.00;99.90;;;;;;4812810;29;20209;-86
2021/04/05 09:50:25;;;;;;;1999.90;999.90;;;5.90;99.90;;;;;;4830384;29;20205;-86
2021/04/05 09:53:16;;;;;;;1999.90;999.90;;;5.80;99.90;;;;;;4816449;29;20173;-85
2021/04/05 09:55:49;;;;;;;1999.90;999.90;;;5.70;99.90;;;;;;4816383;29;20180;-85
2021/04/05 09:58:26;;;;;;;1999.90;999.90;;;5.50;99.90;;;;;;4832975;29;20518;-86
2021/04/05 10:01:23;;;;;;;1999.90;999.90;;;5.40;99.90;;;;;;4829857;29;20239;-86
2021/04/05 10:04:13;;;;;;;1999.90;999.90;;;5.30;99.90;;;;;;4807806;29;20184;-86
2021/04/05 10:06:46;;;;;;;1999.90;999.90;;;5.10;99.90;;;;;;4809765;29;20227;-85
2021/04/05 10:09:20;;;;;;;1999.90;999.90;;;4.90;99.90;;;;;;4813813;29;20197;-86
2021/04/05 10:11:46;;;;;;;1999.90;999.90;;;4.70;99.90;;;;;;4815406;29;20603;-86
2021/04/05 10:14:23;;;;;;;1999.90;999.90;;;4.70;99.90;;;;;;4815676;29;20173;-86
2021/04/05 10:16:53;;;;;;;1999.90;999.90;;;4.70;99.90;;;;;;4816440;29;20676;-86
2021/04/05 10:19:24;;;;;;;1999.90;999.90;;;4.70;99.90;;;;;;4831370;29;20213;-86
2021/04/05 10:22:01;;;;;;;1999.90;999.90;;;4.60;99.90;;;;;;4815508;29;20176;-86
2021/04/05 10:24:33;;;;;;;1999.90;999.90;;;4.60;99.90;;;;;;4816236;29;20168;-86
2021/04/05 10:27:08;;;;;;;1999.90;999.90;;;4.60;99.90;;;;;;4815345;29;20208;-86
2021/04/05 10:29:38;;;;;;;1999.90;999.90;;;4.70;99.90;;;;;;4831419;29;20172;-86
2021/04/05 10:32:06;;;;;;;1999.90;999.90;;;4.60;99.90;;;;;;4831538;29;20216;-86
2021/04/05 10:34:34;;;;;;;1999.90;999.90;;;4.50;99.90;;;;;;4830930;29;20240;-86
2021/04/05 10:37:48;;;;;;;1999.90;999.90;;;4.40;99.90;;;;;;4813167;29;20207;-85
2021/04/05 10:40:16;;;;;;;1999.90;999.90;;;4.40;99.90;;;;;;4810214;29;20287;-86
2021/04/05 10:43:07;;;;;;;1999.90;999.90;;;4.30;99.90;;;;;;4814681;29;20181;-86
2021/04/05 10:45:37;;;;;;;1999.90;999.90;;;4.30;99.90;;;;;;4811555;29;20165;-86
2021/04/05 10:48:17;;;;;;;1999.90;999.90;;;4.40;99.90;;;;;;4814263;29;20208;-86
2021/04/05 10:51:00;;;;;;;1999.90;999.90;;;4.60;99.90;;;;;;4829182;29;20190;-86
2021/04/05 10:53:35;;;;;;;1999.90;999.90;;;4.70;99.90;;;;;;4796394;29;20201;-86
2021/04/05 10:56:09;;;;;;;1999.90;999.90;;;4.80;99.90;;;;;;4825938;29;20695;-87
2021/04/05 10:58:51;;;;;;;1999.90;999.90;;;4.80;99.90;;;;;;4826897;29;20172;-87
2021/04/05 11:01:20;;;;;;;1999.90;999.90;;;5.00;99.90;;;;;;4808649;29;20180;-91
2021/04/05 11:03:52;;;;;;;1999.90;999.90;;;5.00;99.90;;;;;;4808692;29;20184;-87
2021/04/05 11:06:21;;;;;;;1999.90;999.90;;;4.90;99.90;;;;;;4808729;29;20197;-87
2021/04/05 11:08:54;;;;;;;1999.90;999.90;;;4.90;99.90;;;;;;4824821;29;20196;-87
2021/04/05 11:11:29;;;;;;;1999.90;999.90;;;5.00;99.90;;;;;;4808560;29;20204;-88
2021/04/05 11:14:03;;;;;;;1999.90;999.90;;;5.10;99.90;;;;;;4825936;29;20149;-87
2021/04/05 11:16:31;;;;;;;1999.90;999.90;;;5.20;99.90;;;;;;4809775;29;20204;-87
2021/04/05 11:19:13;;;;;;;1999.90;999.90;;;5.30;99.90;;;;;;4809849;29;20172;-87
2021/04/05 11:21:43;;;;;;;1999.90;999.90;;;5.50;99.90;;;;;;4893483;23;20284;-80
2021/04/05 11:24:12;;;;;;;1999.90;999.90;;;5.60;99.90;;;;;;4829803;29;20194;-80
2021/04/05 11:26:40;;;;;;;1999.90;999.90;;;5.60;99.90;;;;;;4831901;29;20193;-79
2021/04/05 11:29:08;;;;;;;1999.90;999.90;;;5.70;99.90;;;;;;4832317;29;20644;-79
2021/04/05 11:31:41;;;;;;;1999.90;999.90;;;5.60;99.90;;;;;;4813500;29;20228;-80
2021/04/05 11:34:08;;;;;;;1999.90;999.90;;;5.70;99.90;;;;;;4830809;29;20168;-80
2021/04/05 11:36:41;;;;;;;1999.90;999.90;;;5.80;99.90;;;;;;4816515;29;20192;-79
2021/04/05 11:39:13;;;;;;;1999.90;999.90;;;5.70;99.90;;;;;;4813677;29;20679;-80
2021/04/05 11:41:41;;;;;;;1999.90;999.90;;;4.90;99.90;;;;;;4830125;29;20202;-80
2021/04/05 11:44:09;;;;;;;1999.90;999.90;;;3.90;99.90;;;;;;4829433;29;20233;-80
2021/04/05 11:46:38;;;;;;;1999.90;999.90;;;3.30;99.90;;;;;;4829345;29;20565;-79
2021/04/05 11:49:12;;;;;;;1999.90;999.90;;;3.00;99.90;;;;;;4828793;29;20537;-79
2021/04/05 11:51:44;;;;;;;1999.90;999.90;;;3.00;99.90;;;;;;4829115;29;20267;-79
2021/04/05 11:54:32;;;;;;;1999.90;999.90;;;3.00;99.90;;;;;;4811888;29;20161;-78
2021/04/05 11:57:01;;;;;;;1999.90;999.90;;;3.10;99.90;;;;;;4828452;29;20185;-79
2021/04/05 11:59:29;;;;;;;1999.90;999.90;;;3.00;99.90;;;;;;4828018;29;20203;-78
2021/04/05 12:02:01;;;;;;;1999.90;999.90;;;3.20;99.90;;;;;;4829202;29;20204;-78
2021/04/05 12:04:47;;;;;;;1999.90;999.90;;;3.40;99.90;;;;;;4827801;29;20168;-78
2021/04/05 12:07:24;;;;;;;1999.90;999.90;;;3.60;99.90;;;;;;4828851;29;20196;-78
2021/04/05 12:10:28;;;;;;;1999.90;999.90;;;3.90;99.90;;;;;;4812833;29;20168;-78
2021/04/05 12:12:56;;;;;;;1999.90;999.90;;;4.30;99.90;;;;;;4809447;29;20192;-79
2021/04/05 12:15:22;;;;;;;1999.90;999.90;;;4.60;99.90;;;;;;4828214;29;20183;-78
2021/04/05 12:17:52;;;;;;;1999.90;999.90;;;4.80;99.90;;;;;;4827673;29;20204;-78
2021/04/05 12:20:24;;;;;;;1999.90;999.90;;;5.00;99.90;;;;;;4828111;29;20192;-79
2021/04/05 12:22:56;;;;;;;1999.90;999.90;;;5.10;99.90;;;;;;4827245;29;20188;-79
2021/04/05 12:25:37;;;;;;;1999.90;999.90;;;5.10;99.90;;;;;;4830507;29;20204;-79
2021/04/05 12:28:13;;;;;;;1999.90;999.90;;;5.20;99.90;;;;;;4832139;29;20152;-79
2021/04/05 12:30:40;;;;;;;1999.90;999.90;;;5.50;99.90;;;;;;4833273;29;20188;-79
2021/04/05 12:33:09;;;;;;;1999.90;999.90;;;5.60;99.90;;;;;;4833881;29;20662;-79
2021/04/05 12:35:36;;;;;;;1999.90;999.90;;;5.60;99.90;;;;;;4832981;29;20183;-79
2021/04/05 12:38:05;;;;;;;1999.90;999.90;;;5.60;99.90;;;;;;4832229;29;20168;-79
2021/04/05 12:40:36;;;;;;;1999.90;999.90;;;5.70;99.90;;;;;;4816220;29;20195;-79
2021/04/05 12:43:10;;;;;;;1999.90;999.90;;;5.60;99.90;;;;;;4832512;29;20169;-79
2021/04/05 12:45:38;;;;;;;1999.90;999.90;;;5.70;99.90;;;;;;4833667;29;20169;-79
2021/04/05 12:48:06;;;;;;;1999.90;999.90;;;5.60;99.90;;;;;;4833724;29;20592;-79
2021/04/05 12:50:36;;;;;;;1999.90;999.90;;;5.70;99.90;;;;;;4834677;29;20169;-79
2021/04/05 12:53:05;;;;;;;1999.90;999.90;;;5.70;99.90;;;;;;4834527;29;20176;-79
2021/04/05 12:55:40;;;;;;;1999.90;999.90;;;5.70;99.90;;;;;;4834590;29;20180;-79
2021/04/05 12:58:06;;;;;;;1999.90;999.90;;;5.20;99.90;;;;;;4833772;29;20161;-79
2021/04/05 13:00:37;;;;;;;1999.90;999.90;;;4.80;99.90;;;;;;4831302;29;20177;-78
2021/04/05 13:03:35;;;;;;;1999.90;999.90;;;4.30;99.90;;;;;;4831620;29;20165;-79